KSFB METAR and TAF | Updated Today

KSFB METAR

Orlando Sanford International Airport

Observation time: 42 min. ago

KSFB 010653Z AUTO 33004KT 10SM CLR 19/16 A2982 RMK AO2 SLP098 T01940161

Need help? Read our tutorial on how to read METARs or read the parsed version below.

Orlando Sanford International Airport (KSFB) METAR

  • Weather conditions on Sat, 01 Oct 2022 06:53:00 +0000 (42 min. ago):
  • Present conditions: Dry
  • Clouds: Clear skies
  • Visibility: 16093 meters
  • Wind: 330 degrees at 4 knots
  • Temperature: 19 celsius
  • Dew point: 16 celsius
  • Pressure: 29.82 inHg
  • Remarks: AO2 SLP098 T01940161


Useful to know...

KSFB TAF

Orlando Sanford International Airport

KSFB 010528Z 0106/0206 36005KT P6SM SCT040 FM011400 35004KT P6SM SKC FM011800 VRB05KT P6SM SKC FM020000 VRB04KT P6SM SKC
Observation time: 2:07 hr. ago
Need help? Read our tutorial on how to read TAFs or read the parsed version below.

Parsed version of TAF for Orlando Sanford International Airport (KSFB)

  • From 01 October at 06:00 UTC, to day 02 of the month at 06:00 UTC
  • Clouds: Scattered at 1219 meters
  • Wind: 360 degrees at 5
  • From day 1 of the month at 14:00 UTC
  • Clouds: No significant changes expected
  • Wind: 350 degrees at 4
  • From day 1 of the month at 18:00 UTC
  • Clouds: No significant changes expected
  • Wind: Variable at 5
  • From day 2 of the month at 00:00 UTC
  • Clouds: No significant changes expected
  • Wind: Variable at 4